Time;durP1;ratioP1;P1;durP2;ratioP2;P2;SDS_P1;SDS_P2;PMS_P1;PMS_P2;Temp;Humidity;BMP_temperature;BMP_pressure;BME280_temperature;BME280_humidity;BME280_pressure;Samples;Min_cycle;Max_cycle;Signal;HPM_P1;HPM_P2
2023/04/13 00:01:21;;;;;;;0.93;0.70;;;;;;;20.10;42.48;99158.19;20649154;28;20046;-66
2023/04/13 00:11:22;;;;;;;0.60;0.43;;;;;;;20.09;42.53;99139.47;20648014;28;20281;-66
2023/04/13 00:21:26;;;;;;;0.93;0.50;;;;;;;20.06;42.49;99135.28;20638034;28;20046;-66
2023/04/13 00:31:28;;;;;;;1.38;0.70;;;;;;;20.06;42.36;99135.28;20641854;28;20046;-66
2023/04/13 00:41:30;;;;;;;0.57;0.50;;;;;;;20.02;42.47;99136.72;20643710;28;20100;-66
2023/04/13 00:51:31;;;;;;;0.40;0.40;;;;;;;19.98;42.59;99124.63;20646669;28;20058;-66
2023/04/13 01:01:33;;;;;;;0.50;0.47;;;;;;;19.96;42.70;99110.47;20632769;28;20130;-66
2023/04/13 01:11:42;;;;;;;0.55;0.30;;;;;;;19.95;42.72;99098.84;20650029;28;20050;-66
2023/04/13 01:21:47;;;;;;;0.60;0.40;;;;;;;19.98;42.99;99092.22;20663863;28;20046;-66
2023/04/13 01:31:49;;;;;;;0.52;0.30;;;;;;;19.99;42.86;99072.28;20626211;28;20050;-66
2023/04/13 01:41:53;;;;;;;0.40;0.40;;;;;;;19.98;43.19;99057.94;20653495;28;20522;-66
2023/04/13 01:51:56;;;;;;;;;;;;;;;20.00;43.27;99047.75;20639166;28;20461;-66
2023/04/13 02:02:01;;;;;;;0.77;0.50;;;;;;;19.99;43.33;99050.69;20638148;28;19928;-66
2023/04/13 02:12:06;;;;;;;0.75;0.43;;;;;;;19.98;43.46;99038.19;20636690;28;20046;-66
2023/04/13 02:22:11;;;;;;;0.82;0.47;;;;;;;19.98;43.55;99043.59;20629501;28;20046;-66
2023/04/13 02:32:16;;;;;;;0.60;0.40;;;;;;;19.97;43.60;99047.34;20655591;28;20097;-66
2023/04/13 02:42:18;;;;;;;0.50;0.30;;;;;;;19.96;43.77;99032.16;20650320;28;20475;-66
2023/04/13 02:52:20;;;;;;;1.23;0.40;;;;;;;19.96;43.79;99034.88;20651961;28;20341;-66
2023/04/13 03:02:34;;;;;;;1.33;0.40;;;;;;;19.94;43.76;99026.94;20649993;28;20054;-66
2023/04/13 03:12:36;;;;;;;0.22;0.22;;;;;;;19.92;43.80;99037.09;20675376;28;20050;-66
2023/04/13 03:22:43;;;;;;;0.35;0.22;;;;;;;19.91;44.07;99031.91;20621695;28;20388;-66
2023/04/13 03:32:48;;;;;;;0.55;0.40;;;;;;;19.90;44.03;99041.03;20647842;28;20113;-66
2023/04/13 03:42:49;;;;;;;1.33;0.33;;;;;;;19.89;44.40;99028.53;20665335;28;20676;-66
2023/04/13 03:52:52;;;;;;;0.30;0.30;;;;;;;19.91;44.45;99038.13;20632839;28;20470;-66
2023/04/13 04:02:54;;;;;;;0.65;0.50;;;;;;;19.92;44.55;99049.78;20647664;28;20474;-66
2023/04/13 04:13:04;;;;;;;0.20;0.20;;;;;;;19.94;44.37;99063.94;20642919;28;20038;-66
2023/04/13 04:23:16;;;;;;;0.20;0.20;;;;;;;19.95;44.54;99076.41;20647620;28;20117;-66
2023/04/13 04:33:28;;;;;;;0.47;0.30;;;;;;;19.99;44.66;99083.09;20646535;28;20050;-66
2023/04/13 04:43:31;;;;;;;0.47;0.30;;;;;;;19.99;44.55;99096.59;20642369;28;20050;-66
2023/04/13 04:53:35;;;;;;;0.28;0.20;;;;;;;19.92;44.87;99104.63;20642944;28;20042;-66
2023/04/13 05:03:41;;;;;;;0.40;0.25;;;;;;;19.99;45.21;99143.31;20625037;28;20341;-66
2023/04/13 05:13:59;;;;;;;0.32;0.32;;;;;;;20.03;45.93;99161.84;20646768;28;20074;-66
2023/04/13 05:24:00;;;;;;;0.90;0.45;;;;;;;20.06;48.00;99161.47;20618681;28;20491;-66
2023/04/13 05:34:06;;;;;;;0.68;0.30;;;;;;;20.10;47.88;99187.06;20628017;28;20659;-66
2023/04/13 05:44:09;;;;;;;1.98;0.57;;;;;;;20.10;47.41;99212.22;20644419;28;20054;-66
2023/04/13 05:54:12;;;;;;;0.90;0.30;;;;;;;20.08;47.18;99225.09;20660235;28;20054;-66
2023/04/13 06:04:19;;;;;;;0.50;0.50;;;;;;;20.13;47.18;99241.56;20669956;28;20042;-66
2023/04/13 06:14:24;;;;;;;0.20;0.17;;;;;;;20.16;47.17;99256.56;20642804;28;20418;-66
2023/04/13 06:24:33;;;;;;;0.50;0.30;;;;;;;20.18;47.09;99268.00;20659526;28;20064;-66
2023/04/13 06:34:34;;;;;;;0.90;0.40;;;;;;;20.20;46.96;99289.41;20667773;28;20046;-66
2023/04/13 06:44:37;;;;;;;0.90;0.43;;;;;;;20.23;47.04;99298.00;20667853;28;20093;-66
2023/04/13 06:54:38;;;;;;;0.95;0.32;;;;;;;20.31;46.70;99307.00;20656987;28;20046;-66
2023/04/13 07:04:53;;;;;;;0.93;0.40;;;;;;;20.37;46.81;99317.03;20665151;28;20061;-66
2023/04/13 07:14:57;;;;;;;1.00;0.50;;;;;;;20.40;46.72;99328.31;20665009;28;20777;-67
2023/04/13 07:24:59;;;;;;;0.57;0.40;;;;;;;20.42;46.44;99341.63;20664525;28;20050;-66
2023/04/13 07:35:04;;;;;;;1.23;0.40;;;;;;;20.50;46.54;99360.41;20647261;28;20081;-66
2023/04/13 07:45:12;;;;;;;0.75;0.40;;;;;;;20.68;46.15;99373.50;20647423;28;20046;-67
2023/04/13 07:55:14;;;;;;;0.80;0.40;;;;;;;20.69;45.89;99380.59;20662041;28;20046;-66
2023/04/13 08:05:20;;;;;;;1.05;0.40;;;;;;;20.66;45.99;99390.97;20648291;28;20518;-66
2023/04/13 08:15:25;;;;;;;0.90;0.45;;;;;;;20.72;46.30;99411.84;20651062;28;20054;-67
2023/04/13 08:25:27;;;;;;;1.20;0.40;;;;;;;20.71;46.06;99410.16;20659658;28;20065;-67
2023/04/13 08:35:29;;;;;;;0.80;0.40;;;;;;;20.68;46.19;99427.59;20658077;28;20054;-67
2023/04/13 08:45:38;;;;;;;1.40;0.50;;;;;;;20.78;46.44;99434.59;20615122;28;20135;-67
2023/04/13 08:55:44;;;;;;;0.43;0.35;;;;;;;20.75;46.56;99449.31;20599216;28;20049;-67
2023/04/13 09:05:48;;;;;;;0.93;0.40;;;;;;;20.69;47.18;99464.41;20621003;28;20061;-68
2023/04/13 09:15:52;;;;;;;1.25;0.40;;;;;;;20.69;47.22;99472.53;20586018;28;20073;-67
2023/04/13 09:26:15;;;;;;;3.92;0.45;;;;;;;20.78;47.44;99499.50;20642665;28;20050;-67
2023/04/13 09:36:19;;;;;;;1.02;0.57;;;;;;;20.88;47.56;99523.53;20638501;28;20426;-67
2023/04/13 09:46:23;;;;;;;0.30;0.30;;;;;;;20.91;47.42;99534.84;20605744;28;20051;-68
2023/04/13 09:56:26;;;;;;;0.82;0.40;;;;;;;20.93;47.52;99553.56;20618843;28;20137;-68
2023/04/13 10:06:27;;;;;;;0.40;0.30;;;;;;;21.01;47.47;99565.13;20616816;28;20055;-68
2023/04/13 10:16:52;;;;;;;1.23;0.50;;;;;;;21.12;47.59;99571.06;20628938;28;20054;-68
2023/04/13 10:26:55;;;;;;;0.55;0.30;;;;;;;21.24;47.53;99566.84;20628681;28;20093;-68
2023/04/13 10:37:05;;;;;;;0.70;0.40;;;;;;;21.30;47.28;99609.41;20633186;28;20053;-68
2023/04/13 10:47:07;;;;;;;1.85;0.50;;;;;;;21.33;47.33;99620.88;20615408;28;20088;-67
2023/04/13 11:09:46;;;;;;;1.63;0.80;;;;;;;21.37;46.93;99651.94;20615100;28;20129;-66
2023/04/13 11:19:54;;;;;;;0.93;0.60;;;;;;;21.37;46.90;99668.19;20629606;28;20092;-67
2023/04/13 11:29:59;;;;;;;1.35;0.70;;;;;;;21.34;46.56;99690.22;20627249;28;20104;-67
2023/04/13 11:40:24;;;;;;;1.30;0.57;;;;;;;21.33;46.46;99702.09;20629380;28;20251;-66
2023/04/13 11:50:29;;;;;;;1.87;0.90;;;;;;;21.33;46.37;99719.16;20627400;28;20047;-67
2023/04/13 12:00:30;;;;;;;1.33;0.83;;;;;;;21.28;46.28;99743.25;20638861;28;20046;-66
2023/04/13 12:10:35;;;;;;;1.77;0.90;;;;;;;21.09;46.36;99725.69;20630999;28;20053;-66
2023/04/13 12:20:52;;;;;;;1.42;0.70;;;;;;;21.33;46.21;99783.28;20617969;28;20097;-67
2023/04/13 12:30:53;;;;;;;2.38;1.00;;;;;;;21.37;46.23;99792.72;20616103;28;20096;-67
2023/04/13 12:40:59;;;;;;;2.80;1.13;;;;;;;21.42;46.27;99822.78;20615367;28;20447;-67
2023/04/13 12:51:00;;;;;;;2.90;1.02;;;;;;;21.39;46.29;99833.97;20606496;28;20069;-66
2023/04/13 13:01:02;;;;;;;3.42;1.50;;;;;;;21.39;46.34;99852.94;20617444;28;20057;-69
2023/04/13 13:11:04;;;;;;;3.15;0.90;;;;;;;21.40;46.46;99860.03;20624219;28;20050;-68
2023/04/13 13:21:08;;;;;;;2.13;1.00;;;;;;;21.43;46.30;99875.91;20572522;28;20054;-68
2023/04/13 13:31:15;;;;;;;3.65;1.00;;;;;;;21.45;46.20;99887.38;20590987;28;20090;-68
2023/04/13 13:41:16;;;;;;;2.50;1.17;;;;;;;21.44;46.12;99897.41;20633450;28;20049;-68
2023/04/13 13:51:20;;;;;;;2.72;0.90;;;;;;;21.44;45.98;99926.31;20614752;28;20057;-68
2023/04/13 14:01:22;;;;;;;3.50;0.82;;;;;;;21.43;45.96;99922.78;20603218;28;20514;-68
2023/04/13 14:11:27;;;;;;;2.85;1.20;;;;;;;21.35;45.97;99925.53;20619495;28;20097;-67
2023/04/13 14:21:30;;;;;;;2.13;0.98;;;;;;;21.45;45.90;99968.63;20633207;28;20042;-67
2023/04/13 14:31:31;;;;;;;1.40;0.70;;;;;;;21.42;45.85;100002.31;20632550;28;20418;-67
2023/04/13 14:41:33;;;;;;;1.95;0.90;;;;;;;21.41;45.74;100010.63;20640540;28;20062;-67
2023/04/13 14:51:36;;;;;;;2.28;0.75;;;;;;;21.40;45.58;100017.88;20623320;28;20521;-68
2023/04/13 15:01:37;;;;;;;1.33;0.80;;;;;;;21.41;45.36;100029.56;20620803;28;20042;-68
2023/04/13 15:11:53;;;;;;;2.05;0.85;;;;;;;21.39;45.40;100058.69;20627667;28;20061;-68
2023/04/13 15:21:55;;;;;;;2.28;0.88;;;;;;;21.42;46.19;100061.03;20636191;28;20096;-67
2023/04/13 15:31:57;;;;;;;4.70;1.25;;;;;;;21.61;46.61;100080.53;20643972;28;20062;-68
2023/04/13 15:41:59;;;;;;;4.32;1.30;;;;;;;21.67;47.03;100088.81;20638736;28;20038;-66
2023/04/13 15:52:03;;;;;;;4.20;1.40;;;;;;;21.73;48.64;100096.22;20623501;28;20057;-66
2023/04/13 16:02:04;;;;;;;4.32;1.55;;;;;;;21.78;49.06;100108.38;20622788;28;20042;-66
2023/04/13 16:12:07;;;;;;;2.90;1.23;;;;;;;21.74;49.73;100118.75;20601815;28;20503;-66
2023/04/13 16:22:09;;;;;;;4.70;2.00;;;;;;;21.67;49.60;100120.50;20589599;28;20435;-66
2023/04/13 16:32:11;;;;;;;5.35;1.45;;;;;;;21.63;49.37;100138.94;20630803;28;20042;-66
2023/04/13 16:42:12;;;;;;;3.55;1.25;;;;;;;21.56;48.83;100148.78;20639901;28;20057;-66
2023/04/13 16:52:16;;;;;;;4.10;1.10;;;;;;;21.52;48.12;100169.13;20647253;28;20431;-66
2023/04/13 17:02:17;;;;;;;2.75;1.05;;;;;;;21.49;47.60;100186.56;20624991;28;20077;-66
2023/04/13 17:12:25;;;;;;;3.47;1.30;;;;;;;21.44;47.03;100195.25;20616793;28;20047;-66
2023/04/13 17:22:32;;;;;;;3.33;1.00;;;;;;;21.41;46.71;100205.56;20641926;28;20069;-66
2023/04/13 17:32:36;;;;;;;3.20;1.00;;;;;;;21.28;46.35;100212.41;20638904;28;20047;-66
2023/04/13 17:42:44;;;;;;;2.92;1.15;;;;;;;21.28;45.96;100228.66;20616187;28;20069;-66
2023/04/13 17:52:47;;;;;;;2.50;1.03;;;;;;;21.23;45.79;100239.16;20644989;28;20141;-66
2023/04/13 18:02:49;;;;;;;3.47;1.13;;;;;;;21.19;45.60;100272.97;20641048;28;20053;-66
2023/04/13 18:13:00;;;;;;;2.20;0.73;;;;;;;21.07;45.33;100277.94;20647071;28;20054;-64
2023/04/13 18:23:01;;;;;;;1.95;0.80;;;;;;;21.00;45.41;100304.84;20614690;28;20313;-66
2023/04/13 18:33:03;;;;;;;2.55;1.00;;;;;;;21.00;45.10;100323.78;20652622;28;20046;-66
2023/04/13 18:43:05;;;;;;;2.40;1.00;;;;;;;20.91;44.91;100342.88;20653059;28;20050;-66
2023/04/13 18:53:06;;;;;;;3.08;1.25;;;;;;;20.86;44.67;100354.25;20652138;28;20063;-66
2023/04/13 19:03:08;;;;;;;2.90;0.90;;;;;;;20.81;44.59;100367.44;20661341;28;20058;-66
2023/04/13 19:13:13;;;;;;;1.52;0.63;;;;;;;20.77;44.36;100379.53;20665526;28;20061;-66
2023/04/13 19:23:16;;;;;;;2.00;1.02;;;;;;;20.71;44.04;100389.19;20665608;28;20125;-66
2023/04/13 19:33:20;;;;;;;;;;;;;;;20.67;44.15;100399.50;20663700;28;20042;-66
2023/04/13 19:43:23;;;;;;;2.75;0.98;;;;;;;20.61;43.95;100405.56;20663697;28;19926;-66
2023/04/13 19:53:28;;;;;;;2.08;0.77;;;;;;;20.58;43.59;100411.31;20663192;28;20057;-66
2023/04/13 20:03:29;;;;;;;2.50;0.88;;;;;;;20.56;43.47;100418.75;20662443;28;20078;-66
2023/04/13 20:13:34;;;;;;;3.22;1.10;;;;;;;20.54;43.31;100415.38;20660404;28;20046;-66
2023/04/13 20:23:36;;;;;;;3.80;1.10;;;;;;;20.51;42.93;100421.94;20659725;28;20101;-66
2023/04/13 20:33:38;;;;;;;2.35;0.90;;;;;;;20.49;42.92;100417.72;20642034;28;20519;-66
2023/04/13 20:43:40;;;;;;;2.22;0.88;;;;;;;20.45;42.59;100419.91;20658590;28;20054;-66
2023/04/13 20:53:42;;;;;;;1.50;0.65;;;;;;;20.47;42.59;100430.56;20658054;28;20050;-66
2023/04/13 21:03:46;;;;;;;1.73;0.75;;;;;;;20.47;42.61;100442.22;20656271;28;20046;-66
2023/04/13 21:13:48;;;;;;;1.67;0.98;;;;;;;20.47;42.42;100449.50;20656370;28;20439;-66
2023/04/13 21:23:52;;;;;;;0.88;0.65;;;;;;;20.45;42.30;100448.81;20656342;28;20149;-66
2023/04/13 21:33:54;;;;;;;2.08;1.00;;;;;;;20.43;42.13;100468.75;20655468;28;20053;-66
2023/04/13 21:43:56;;;;;;;1.65;0.70;;;;;;;20.40;41.82;100466.38;20655049;28;20499;-66
2023/04/13 21:53:57;;;;;;;1.58;0.75;;;;;;;20.40;41.75;100473.63;20653215;28;20073;-66
2023/04/13 22:03:59;;;;;;;1.20;0.77;;;;;;;20.38;41.54;100475.63;20654144;28;20050;-66
2023/04/13 22:14:01;;;;;;;1.52;0.90;;;;;;;20.37;41.55;100477.50;20653863;28;20081;-66
2023/04/13 22:24:07;;;;;;;2.25;1.02;;;;;;;20.33;41.36;100495.06;20653440;28;20051;-66
2023/04/13 22:34:08;;;;;;;1.47;0.70;;;;;;;20.29;41.13;100485.56;20656295;28;20138;-66
2023/04/13 22:44:10;;;;;;;1.80;0.90;;;;;;;20.25;40.97;100513.94;20668788;28;20503;-66
2023/04/13 22:54:13;;;;;;;2.88;1.17;;;;;;;20.22;41.05;100512.41;20666557;28;20058;-66
2023/04/13 23:04:15;;;;;;;1.60;0.75;;;;;;;20.18;40.75;100511.03;20667046;28;20072;-66
2023/04/13 23:14:17;;;;;;;1.13;0.80;;;;;;;20.17;40.76;100503.09;20665735;28;20137;-66
2023/04/13 23:24:24;;;;;;;2.42;0.77;;;;;;;20.14;40.61;100491.59;20663859;28;20051;-66
2023/04/13 23:34:25;;;;;;;2.90;1.17;;;;;;;20.12;40.38;100495.47;20663511;28;20046;-66
2023/04/13 23:44:27;;;;;;;1.02;0.85;;;;;;;20.11;40.81;100502.72;20663118;28;20046;-66
2023/04/13 23:54:31;;;;;;;1.60;0.80;;;;;;;20.08;40.53;100513.84;20662991;28;20080;-66
